Time;durP1;ratioP1;P1;durP2;ratioP2;P2;SDS_P1;SDS_P2;PMS_P1;PMS_P2;Temp;Humidity;BMP_temperature;BMP_pressure;BME280_temperature;BME280_humidity;BME280_pressure;Samples;Min_cycle;Max_cycle;Signal;HPM_P1;HPM_P2
2022/10/14 00:01:26;;;;;;;16.15;6.93;;;14.40;1.00;;;;;;5089933;28;20863;-53
2022/10/14 00:03:53;;;;;;;14.65;6.88;;;14.30;1.00;;;;;;5089232;28;20409;-53
2022/10/14 00:06:21;;;;;;;15.85;6.97;;;14.50;1.00;;;;;;5090053;28;20859;-53
2022/10/14 00:08:47;;;;;;;15.20;7.30;;;14.50;1.00;;;;;;5090322;28;20400;-53
2022/10/14 00:11:19;;;;;;;13.77;6.55;;;14.60;1.00;;;;;;5089655;28;20922;-53
2022/10/14 00:13:45;;;;;;;12.70;6.90;;;14.60;1.00;;;;;;5090292;28;20414;-53
2022/10/14 00:16:25;;;;;;;14.35;6.22;;;14.70;1.00;;;;;;5089148;28;20416;-53
2022/10/14 00:18:51;;;;;;;15.15;6.70;;;14.70;1.00;;;;;;5087707;28;20783;-54
2022/10/14 00:21:17;;;;;;;12.87;6.47;;;14.50;1.00;;;;;;5089884;28;20397;-52
2022/10/14 00:23:43;;;;;;;11.90;5.75;;;14.60;1.00;;;;;;5089872;28;20401;-52
2022/10/14 00:26:18;;;;;;;13.82;6.55;;;14.60;1.00;;;;;;5088502;28;20447;-52
2022/10/14 00:28:44;;;;;;;13.30;6.50;;;14.60;1.00;;;;;;5087543;28;20414;-52
2022/10/14 00:31:09;;;;;;;12.82;7.10;;;14.60;1.00;;;;;;5088787;28;20393;-52
2022/10/14 00:33:35;;;;;;;13.07;6.27;;;14.50;1.00;;;;;;5089365;28;20459;-53
2022/10/14 00:36:02;;;;;;;15.40;6.73;;;14.60;1.00;;;;;;5089756;28;20802;-55
2022/10/14 00:38:28;;;;;;;15.23;7.15;;;14.70;1.00;;;;;;5089917;28;20390;-55
2022/10/14 00:40:55;;;;;;;15.63;7.13;;;14.80;1.00;;;;;;5088849;28;20382;-55
2022/10/14 00:43:23;;;;;;;14.65;7.50;;;14.70;1.00;;;;;;5086933;28;20947;-54
2022/10/14 00:45:49;;;;;;;16.30;6.93;;;14.70;1.00;;;;;;5088974;28;20389;-55
2022/10/14 00:48:16;;;;;;;13.55;6.72;;;14.70;1.00;;;;;;5089267;28;20386;-55
2022/10/14 00:50:44;;;;;;;13.07;7.20;;;14.60;1.00;;;;;;5087041;28;20386;-53
2022/10/14 00:53:12;;;;;;;13.93;7.35;;;14.50;1.00;;;;;;5088733;28;20408;-52
2022/10/14 00:55:40;;;;;;;12.98;7.10;;;14.50;1.00;;;;;;5089807;28;20495;-53
2022/10/14 00:58:06;;;;;;;15.53;7.20;;;14.50;1.00;;;;;;5089331;28;20843;-53
2022/10/14 01:00:32;;;;;;;13.00;6.88;;;14.60;1.00;;;;;;5089232;28;20385;-52
2022/10/14 01:02:58;;;;;;;15.65;6.90;;;14.40;1.00;;;;;;5088932;28;20410;-52
2022/10/14 01:05:30;;;;;;;11.70;6.77;;;14.50;26.20;;;;;;5089757;28;20398;-53
2022/10/14 01:08:14;;;;;;;15.07;6.40;;;14.50;2.20;;;;;;5071652;28;20425;-53
2022/10/14 01:10:49;;;;;;;13.02;6.70;;;14.60;1.00;;;;;;5089294;28;20386;-53
2022/10/14 01:13:30;;;;;;;15.13;6.72;;;14.70;1.00;;;;;;5088544;28;20386;-53
2022/10/14 01:16:02;;;;;;;12.93;6.90;;;14.70;1.00;;;;;;5087986;28;20390;-55
2022/10/14 01:18:53;;;;;;;14.10;6.63;;;14.70;1.00;;;;;;5088867;28;20382;-55
2022/10/14 01:21:33;;;;;;;13.00;6.40;;;14.80;1.00;;;;;;5086332;28;20386;-55
2022/10/14 01:24:42;;;;;;;14.45;6.80;;;14.80;1.00;;;;;;5088633;28;20414;-55
2022/10/14 01:27:46;;;;;;;13.35;6.70;;;14.60;1.00;;;;;;5082190;28;20377;-55
2022/10/14 01:30:18;;;;;;;14.82;7.80;;;14.60;1.00;;;;;;4958070;28;20398;-55
2022/10/14 01:33:06;;;;;;;13.98;6.68;;;14.70;1.00;;;;;;5067118;28;20459;-55
2022/10/14 01:35:52;;;;;;;15.70;7.33;;;14.70;1.00;;;;;;5088378;28;20405;-55
2022/10/14 01:38:41;;;;;;;14.33;6.37;;;14.60;1.00;;;;;;5087463;28;20384;-55
2022/10/14 01:41:19;;;;;;;14.57;6.90;;;14.60;1.00;;;;;;5090428;28;20418;-55
2022/10/14 01:43:49;;;;;;;15.00;6.70;;;14.60;1.00;;;;;;5090403;28;20539;-55
2022/10/14 01:46:17;;;;;;;14.75;7.22;;;14.50;1.00;;;;;;5091782;28;20409;-55
2022/10/14 01:48:46;;;;;;;12.60;6.18;;;14.50;1.00;;;;;;5090757;28;20406;-54
2022/10/14 01:51:18;;;;;;;13.18;6.60;;;14.50;1.00;;;;;;5091985;28;20438;-54
2022/10/14 01:53:53;;;;;;;12.43;6.43;;;14.40;1.00;;;;;;5089883;28;20385;-55
2022/10/14 01:56:19;;;;;;;14.10;6.90;;;14.40;1.00;;;;;;5092571;28;20457;-53
2022/10/14 01:58:45;;;;;;;12.00;6.20;;;14.30;1.00;;;;;;5092305;28;20469;-53
2022/10/14 02:01:10;;;;;;;11.65;6.65;;;14.30;1.00;;;;;;5091272;28;20501;-53
2022/10/14 02:03:45;;;;;;;12.38;6.10;;;14.40;1.00;;;;;;5092581;28;20497;-53
2022/10/14 02:06:33;;;;;;;15.38;6.68;;;14.20;1.00;;;;;;5091384;28;21032;-53
2022/10/14 02:09:11;;;;;;;16.35;7.50;;;14.10;44.40;;;;;;5091468;28;20386;-52
2022/10/14 02:11:56;;;;;;;12.30;6.55;;;14.10;55.50;;;;;;5091998;28;20928;-52
2022/10/14 02:14:32;;;;;;;12.15;6.32;;;14.10;66.30;;;;;;5092024;28;20426;-53
2022/10/14 02:17:10;;;;;;;13.45;6.85;;;14.10;81.90;;;;;;5091818;28;20390;-53
2022/10/14 02:19:54;;;;;;;12.88;5.72;;;14.00;99.90;;;;;;5092060;28;20465;-53
2022/10/14 02:22:36;;;;;;;13.00;5.78;;;14.00;99.90;;;;;;5091630;28;20914;-53
2022/10/14 02:25:49;;;;;;;12.75;5.57;;;13.80;99.90;;;;;;5088006;28;20691;-53
2022/10/14 02:28:18;;;;;;;11.17;5.73;;;13.70;99.90;;;;;;5065818;28;20904;-53
2022/10/14 02:30:54;;;;;;;11.30;5.67;;;13.70;99.90;;;;;;5089518;28;20394;-52
2022/10/14 02:33:23;;;;;;;10.55;5.70;;;13.60;99.90;;;;;;5091646;28;20425;-53
2022/10/14 02:35:50;;;;;;;10.93;5.53;;;13.50;99.90;;;;;;5091566;28;20475;-52
2022/10/14 02:38:17;;;;;;;11.55;5.65;;;13.50;99.90;;;;;;5090560;28;20739;-53
2022/10/14 02:40:46;;;;;;;12.27;5.63;;;13.50;99.90;;;;;;5089164;28;20374;-52
2022/10/14 02:43:11;;;;;;;10.50;5.80;;;13.60;99.90;;;;;;5090916;28;20491;-52
2022/10/14 02:45:38;;;;;;;12.65;5.70;;;13.60;99.90;;;;;;5091370;28;20867;-53
2022/10/14 02:48:05;;;;;;;13.35;5.60;;;13.70;99.90;;;;;;5091671;28;20388;-52
2022/10/14 02:50:31;;;;;;;10.57;4.95;;;13.60;99.90;;;;;;5091260;28;20725;-52
2022/10/14 02:52:56;;;;;;;11.55;4.90;;;13.70;99.90;;;;;;5090773;28;20438;-52
2022/10/14 02:55:22;;;;;;;11.02;5.00;;;13.70;99.90;;;;;;5089907;28;20374;-53
2022/10/14 02:57:48;;;;;;;11.38;5.22;;;13.70;99.90;;;;;;5091247;28;20396;-52
2022/10/14 03:00:16;;;;;;;11.47;5.00;;;13.80;99.90;;;;;;5091044;28;20374;-52
2022/10/14 03:02:41;;;;;;;10.95;5.57;;;13.80;99.90;;;;;;5091808;28;20929;-53
2022/10/14 03:05:07;;;;;;;14.87;6.20;;;13.80;99.90;;;;;;5089842;28;20398;-53
2022/10/14 03:07:33;;;;;;;10.02;5.07;;;13.80;99.90;;;;;;5085728;28;20412;-52
2022/10/14 03:09:58;;;;;;;13.40;5.57;;;13.80;99.90;;;;;;5089616;28;20390;-52
2022/10/14 03:12:25;;;;;;;11.60;5.03;;;13.80;99.90;;;;;;5090622;28;20450;-52
2022/10/14 03:14:50;;;;;;;11.48;5.30;;;13.90;99.90;;;;;;5090588;28;20851;-52
2022/10/14 03:17:16;;;;;;;10.23;5.15;;;13.80;99.90;;;;;;5090193;28;20435;-52
2022/10/14 03:19:42;;;;;;;13.57;5.97;;;13.80;99.90;;;;;;5090739;28;20389;-52
2022/10/14 03:22:07;;;;;;;12.45;5.30;;;13.90;99.90;;;;;;5084698;28;21048;-52
2022/10/14 03:24:33;;;;;;;11.93;5.45;;;13.90;99.90;;;;;;5085761;28;20378;-52
2022/10/14 03:26:58;;;;;;;12.83;5.60;;;13.80;99.90;;;;;;5090205;28;20878;-53
2022/10/14 03:29:24;;;;;;;13.32;5.18;;;13.90;99.90;;;;;;5090871;28;20442;-53
2022/10/14 03:31:50;;;;;;;11.25;5.18;;;14.00;99.90;;;;;;5091011;28;20426;-52
2022/10/14 03:34:15;;;;;;;12.50;5.73;;;13.90;99.90;;;;;;5090121;28;20386;-53
2022/10/14 03:36:41;;;;;;;13.15;5.35;;;14.00;99.90;;;;;;5090658;28;20443;-52
2022/10/14 03:39:09;;;;;;;11.83;5.17;;;14.00;99.90;;;;;;5090203;28;20834;-52
2022/10/14 03:41:35;;;;;;;12.63;4.97;;;14.00;99.90;;;;;;5090700;28;20381;-52
2022/10/14 03:44:00;;;;;;;13.87;5.70;;;13.90;99.90;;;;;;5071572;28;20402;-53
2022/10/14 03:46:26;;;;;;;14.65;6.13;;;13.90;99.90;;;;;;5090535;28;20846;-52
2022/10/14 03:48:52;;;;;;;11.07;5.50;;;14.00;99.90;;;;;;5090802;28;20814;-54
2022/10/14 03:51:18;;;;;;;9.30;4.55;;;14.10;99.90;;;;;;5089969;28;20383;-52
2022/10/14 03:53:43;;;;;;;13.33;5.47;;;14.00;99.90;;;;;;5090345;28;20378;-53
2022/10/14 03:56:09;;;;;;;10.07;4.80;;;14.10;99.90;;;;;;5087751;28;20389;-52
2022/10/14 03:58:35;;;;;;;12.65;4.70;;;14.20;99.90;;;;;;5088150;28;20918;-52
2022/10/14 04:01:00;;;;;;;12.67;5.60;;;14.20;99.90;;;;;;5088940;28;20741;-53
2022/10/14 04:03:26;;;;;;;13.23;5.47;;;14.20;99.90;;;;;;5090260;28;20469;-53
2022/10/14 04:05:52;;;;;;;16.60;6.70;;;14.10;99.90;;;;;;5090025;28;20420;-52
2022/10/14 04:08:18;;;;;;;12.30;5.90;;;13.00;99.90;;;;;;5089825;28;20375;-53
2022/10/14 04:10:44;;;;;;;13.98;6.10;;;13.70;99.90;;;;;;5090040;28;20910;-52
2022/10/14 04:13:10;;;;;;;13.03;5.50;;;13.60;99.90;;;;;;5088869;28;20523;-52
2022/10/14 04:15:36;;;;;;;15.18;6.40;;;13.50;99.90;;;;;;5089798;28;20424;-53
2022/10/14 04:18:01;;;;;;;13.70;6.17;;;13.50;99.90;;;;;;5084083;28;20408;-53
2022/10/14 04:20:27;;;;;;;12.55;6.30;;;13.60;99.90;;;;;;5088060;28;20389;-52
2022/10/14 04:22:53;;;;;;;16.70;6.70;;;13.60;99.90;;;;;;5087283;28;20415;-54
2022/10/14 04:25:19;;;;;;;13.57;6.30;;;13.50;99.90;;;;;;5084705;28;20374;-52
2022/10/14 04:27:45;;;;;;;14.65;6.25;;;13.60;99.90;;;;;;5089622;28;20381;-52
2022/10/14 04:30:11;;;;;;;15.20;6.82;;;13.60;99.90;;;;;;5088968;28;20378;-52
2022/10/14 04:32:37;;;;;;;12.55;6.20;;;13.50;99.90;;;;;;5087001;28;20422;-52
2022/10/14 04:35:04;;;;;;;13.90;5.88;;;13.50;99.90;;;;;;5077979;28;20791;-52
2022/10/14 04:37:30;;;;;;;13.95;6.35;;;13.60;99.90;;;;;;5070108;28;20416;-52
2022/10/14 04:39:55;;;;;;;14.30;6.43;;;13.60;99.90;;;;;;5069031;28;20375;-54
2022/10/14 04:42:21;;;;;;;13.37;6.50;;;13.60;99.90;;;;;;5070155;28;20425;-52
2022/10/14 04:44:47;;;;;;;14.02;6.30;;;13.60;99.90;;;;;;5069754;28;20375;-52
2022/10/14 04:47:12;;;;;;;14.10;6.20;;;13.60;99.90;;;;;;5068902;28;20441;-52
2022/10/14 04:49:38;;;;;;;15.20;7.13;;;13.60;99.90;;;;;;5069708;28;20880;-52
2022/10/14 04:52:04;;;;;;;13.32;6.57;;;13.60;99.90;;;;;;5069479;28;20375;-53
2022/10/14 04:54:30;;;;;;;16.27;6.70;;;13.70;99.90;;;;;;5070109;28;20836;-53
2022/10/14 04:56:55;;;;;;;13.82;7.00;;;13.70;99.90;;;;;;5069525;28;20429;-55
2022/10/14 04:59:21;;;;;;;14.43;7.03;;;13.70;99.90;;;;;;5069816;28;20444;-54
2022/10/14 05:01:47;;;;;;;17.30;6.93;;;13.70;99.90;;;;;;5069541;28;20383;-54
2022/10/14 05:04:12;;;;;;;17.50;7.43;;;13.60;99.90;;;;;;5068861;28;21117;-54
2022/10/14 05:06:38;;;;;;;17.92;7.28;;;13.60;99.90;;;;;;5069942;28;20378;-54
2022/10/14 05:09:05;;;;;;;13.50;6.53;;;13.70;99.90;;;;;;5069311;28;20465;-54
2022/10/14 05:11:30;;;;;;;15.02;6.88;;;13.60;99.90;;;;;;5070169;28;20510;-54
2022/10/14 05:13:56;;;;;;;13.25;6.68;;;13.60;99.90;;;;;;5072971;28;20530;-53
2022/10/14 05:16:22;;;;;;;16.30;7.60;;;13.60;99.90;;;;;;5073351;28;20533;-54
2022/10/14 05:18:47;;;;;;;16.70;7.50;;;13.60;99.90;;;;;;5073118;28;20851;-55
2022/10/14 05:21:13;;;;;;;19.38;8.40;;;13.60;99.90;;;;;;5072541;28;20423;-53
2022/10/14 05:23:38;;;;;;;15.70;8.77;;;13.60;99.90;;;;;;5073526;28;20456;-55
2022/10/14 05:26:04;;;;;;;21.43;8.57;;;13.60;99.90;;;;;;5072162;28;20375;-53
2022/10/14 05:28:30;;;;;;;19.40;8.82;;;13.70;99.90;;;;;;5073105;28;20864;-53
2022/10/14 05:30:55;;;;;;;17.47;8.40;;;13.60;99.90;;;;;;5072469;28;20423;-55
2022/10/14 05:33:21;;;;;;;20.98;9.35;;;13.70;99.90;;;;;;5072705;28;20915;-53
2022/10/14 05:35:47;;;;;;;18.47;8.83;;;13.70;99.90;;;;;;5072522;28;20388;-52
2022/10/14 05:38:13;;;;;;;16.60;8.90;;;13.70;99.90;;;;;;5072235;28;20677;-53
2022/10/14 05:40:39;;;;;;;17.23;8.90;;;13.70;99.90;;;;;;5072959;28;20380;-53
2022/10/14 05:43:05;;;;;;;17.77;8.80;;;13.70;99.90;;;;;;5071820;28;20452;-53
2022/10/14 05:45:31;;;;;;;17.75;8.73;;;13.70;99.90;;;;;;5072786;28;20384;-53
2022/10/14 05:47:57;;;;;;;19.42;9.35;;;13.80;99.90;;;;;;5071999;28;20722;-55
2022/10/14 05:50:22;;;;;;;19.60;8.83;;;13.90;99.90;;;;;;5072571;28;20379;-53
2022/10/14 05:52:48;;;;;;;15.97;8.37;;;13.90;99.90;;;;;;5072958;28;20454;-55
2022/10/14 05:55:13;;;;;;;17.90;9.23;;;13.90;99.90;;;;;;5071968;28;20387;-53
2022/10/14 05:57:42;;;;;;;19.63;9.00;;;14.00;99.90;;;;;;5072683;28;20372;-53
2022/10/14 06:00:08;;;;;;;21.90;10.40;;;14.00;99.90;;;;;;5071950;28;20384;-53
2022/10/14 06:02:34;;;;;;;20.20;9.57;;;14.10;99.90;;;;;;5072276;28;20416;-53
2022/10/14 06:05:00;;;;;;;18.33;9.90;;;14.10;99.90;;;;;;5080057;28;20824;-53
2022/10/14 06:07:26;;;;;;;15.47;9.33;;;14.00;99.90;;;;;;5092922;28;20958;-53
2022/10/14 06:09:51;;;;;;;17.45;9.20;;;14.00;99.90;;;;;;5092863;28;20366;-53
2022/10/14 06:12:17;;;;;;;17.70;8.90;;;14.10;99.90;;;;;;5091822;28;20462;-53
2022/10/14 06:14:42;;;;;;;18.67;8.90;;;14.20;99.90;;;;;;5092370;28;20382;-53
2022/10/14 06:17:08;;;;;;;17.17;8.40;;;14.20;99.90;;;;;;5092225;28;20855;-53
2022/10/14 06:19:33;;;;;;;16.63;8.98;;;14.20;99.90;;;;;;5091840;28;20413;-53
2022/10/14 06:21:59;;;;;;;18.07;8.53;;;14.30;99.90;;;;;;5091276;28;20390;-53
2022/10/14 06:24:24;;;;;;;16.63;8.70;;;14.40;99.90;;;;;;5091698;28;20775;-53
2022/10/14 06:26:50;;;;;;;19.85;8.30;;;14.50;99.90;;;;;;5092442;28;20408;-53
2022/10/14 06:29:16;;;;;;;16.73;7.90;;;14.60;99.90;;;;;;5091563;28;20370;-53
2022/10/14 06:31:42;;;;;;;16.60;8.40;;;14.60;99.90;;;;;;5092078;28;20769;-53
2022/10/14 06:34:08;;;;;;;18.20;8.80;;;14.60;99.90;;;;;;5091422;28;20911;-53
2022/10/14 06:36:34;;;;;;;17.20;8.43;;;14.70;99.90;;;;;;5092218;28;20366;-53
2022/10/14 06:38:59;;;;;;;19.08;8.80;;;14.70;99.90;;;;;;5091838;28;20461;-55
2022/10/14 06:41:25;;;;;;;18.80;8.77;;;14.70;99.90;;;;;;5092167;28;20457;-55
2022/10/14 06:43:51;;;;;;;18.20;8.65;;;14.70;99.90;;;;;;5091664;28;20513;-55
2022/10/14 06:46:17;;;;;;;18.13;8.97;;;14.80;99.90;;;;;;5091153;28;20964;-55
2022/10/14 06:48:43;;;;;;;18.98;9.02;;;14.80;99.90;;;;;;5091875;28;20379;-55
2022/10/14 06:51:08;;;;;;;18.40;8.77;;;14.70;99.90;;;;;;5090820;28;20386;-53
2022/10/14 06:53:34;;;;;;;19.35;9.05;;;14.70;99.90;;;;;;5092404;28;20366;-52
2022/10/14 06:56:05;;;;;;;18.15;8.32;;;14.80;99.90;;;;;;5091019;28;20404;-53
2022/10/14 06:58:31;;;;;;;17.58;8.50;;;14.80;99.90;;;;;;5091673;28;20409;-55
2022/10/14 07:01:02;;;;;;;14.17;8.20;;;14.80;99.90;;;;;;5090768;28;20427;-52
2022/10/14 07:03:27;;;;;;;19.73;8.10;;;14.80;99.90;;;;;;5091443;28;20420;-53
2022/10/14 07:05:53;;;;;;;18.63;8.45;;;14.90;99.90;;;;;;5091220;28;21266;-53
2022/10/14 07:08:18;;;;;;;18.00;8.63;;;15.00;99.90;;;;;;5091082;28;20366;-53
2022/10/14 07:10:46;;;;;;;17.50;8.00;;;15.10;99.90;;;;;;5091425;28;20797;-53
2022/10/14 07:13:12;;;;;;;16.98;8.65;;;15.00;99.90;;;;;;5090654;28;20420;-53
2022/10/14 07:15:38;;;;;;;16.53;8.60;;;15.10;99.90;;;;;;5091623;28;20402;-53
2022/10/14 07:18:04;;;;;;;18.48;9.45;;;15.20;99.90;;;;;;5090962;28;20378;-53
2022/10/14 07:20:30;;;;;;;16.90;8.30;;;15.20;99.90;;;;;;5091126;28;20904;-55
2022/10/14 07:22:56;;;;;;;17.98;9.35;;;15.20;99.90;;;;;;5072870;28;20413;-56
2022/10/14 07:25:22;;;;;;;16.80;9.17;;;15.20;99.90;;;;;;5090436;28;20386;-53
2022/10/14 07:27:47;;;;;;;19.10;8.70;;;15.10;99.90;;;;;;5091393;28;20381;-55
2022/10/14 07:30:13;;;;;;;17.37;8.77;;;15.10;99.90;;;;;;5090588;28;20443;-55
2022/10/14 07:32:38;;;;;;;18.23;9.07;;;15.10;99.90;;;;;;5090668;28;20442;-55
2022/10/14 07:35:05;;;;;;;16.42;8.15;;;15.10;99.90;;;;;;5089751;28;20481;-56
2022/10/14 07:37:30;;;;;;;17.07;8.57;;;15.10;99.90;;;;;;5090423;28;20406;-53
2022/10/14 07:39:56;;;;;;;19.55;8.20;;;15.10;99.90;;;;;;5090450;28;20421;-54
2022/10/14 07:42:22;;;;;;;16.30;7.50;;;15.20;95.70;;;;;;5090594;28;20370;-54
2022/10/14 07:44:47;;;;;;;18.27;8.68;;;15.20;99.90;;;;;;5091246;28;20447;-53
2022/10/14 07:47:13;;;;;;;16.45;8.50;;;15.20;99.90;;;;;;5089671;28;20373;-54
2022/10/14 07:49:39;;;;;;;18.63;8.73;;;15.30;99.90;;;;;;5090676;28;20385;-53
2022/10/14 07:52:04;;;;;;;21.83;10.02;;;15.30;93.40;;;;;;5090175;28;20708;-54
2022/10/14 07:54:31;;;;;;;19.30;9.15;;;15.40;97.10;;;;;;5090095;28;20394;-53
2022/10/14 07:56:57;;;;;;;17.63;8.60;;;15.40;82.60;;;;;;5089983;28;20401;-54
2022/10/14 07:59:24;;;;;;;19.70;8.40;;;15.40;92.50;;;;;;5090308;28;20744;-53
2022/10/14 08:01:51;;;;;;;17.33;9.45;;;15.40;79.90;;;;;;5090569;28;20855;-53
2022/10/14 08:04:17;;;;;;;15.70;8.15;;;15.60;71.50;;;;;;5089444;28;20970;-53
2022/10/14 08:06:43;;;;;;;17.85;8.38;;;15.60;56.40;;;;;;5090817;28;20397;-53
2022/10/14 08:09:10;;;;;;;18.40;7.70;;;15.60;25.30;;;;;;5071210;28;20386;-53
2022/10/14 08:11:36;;;;;;;17.20;8.07;;;15.60;47.90;;;;;;5089867;28;20450;-53
2022/10/14 08:14:02;;;;;;;17.13;8.20;;;15.60;33.50;;;;;;5089480;28;20417;-53
2022/10/14 08:16:31;;;;;;;15.60;7.60;;;15.60;39.20;;;;;;5090276;28;20924;-53
2022/10/14 08:18:59;;;;;;;14.30;7.97;;;15.60;4.70;;;;;;5089834;28;20876;-55
2022/10/14 08:21:26;;;;;;;16.65;7.32;;;15.70;1.00;;;;;;5090423;28;20381;-57
2022/10/14 08:23:53;;;;;;;12.77;6.90;;;15.70;1.00;;;;;;5089931;28;20489;-53
2022/10/14 08:26:22;;;;;;;14.98;7.30;;;15.60;1.00;;;;;;5089994;28;20378;-53
2022/10/14 08:28:49;;;;;;;14.48;7.38;;;15.60;1.00;;;;;;5090160;28;20382;-55
2022/10/14 08:31:15;;;;;;;13.35;7.13;;;16.70;1.00;;;;;;5088906;28;20734;-56
2022/10/14 08:33:41;;;;;;;12.57;7.00;;;15.70;1.00;;;;;;5089920;28;20958;-54
2022/10/14 08:36:07;;;;;;;17.58;7.90;;;15.80;1.00;;;;;;5089586;28;20383;-54
2022/10/14 08:38:33;;;;;;;14.38;7.30;;;15.70;1.00;;;;;;5090036;28;20370;-55
2022/10/14 08:41:07;;;;;;;17.73;7.47;;;15.70;1.00;;;;;;5089294;28;20366;-55
2022/10/14 08:44:06;;;;;;;15.17;7.47;;;15.60;1.00;;;;;;5089701;28;20969;-55
2022/10/14 08:46:34;;;;;;;17.90;8.65;;;15.70;1.00;;;;;;5090828;28;20389;-55
2022/10/14 08:49:14;;;;;;;17.73;8.63;;;15.70;1.00;;;;;;5095923;28;20401;-57
2022/10/14 08:51:47;;;;;;;19.20;9.07;;;15.70;1.00;;;;;;5096864;28;20424;-55
2022/10/14 08:54:21;;;;;;;18.27;8.77;;;15.70;1.00;;;;;;5095987;28;20378;-55
2022/10/14 08:56:46;;;;;;;20.02;8.88;;;15.70;1.00;;;;;;5096704;28;20409;-56
2022/10/14 08:59:18;;;;;;;21.63;9.47;;;15.90;1.00;;;;;;5095564;28;20749;-55
2022/10/14 09:02:08;;;;;;;18.60;8.50;;;16.10;1.00;;;;;;5096470;28;20803;-55
2022/10/14 09:04:34;;;;;;;21.95;9.25;;;16.20;1.00;;;;;;5096927;28;20417;-56
2022/10/14 09:07:02;;;;;;;16.03;8.30;;;16.40;1.00;;;;;;5095920;28;20374;-57
2022/10/14 09:09:36;;;;;;;18.20;8.63;;;16.60;1.00;;;;;;5096651;28;20378;-55
2022/10/14 09:12:09;;;;;;;16.30;7.68;;;16.80;1.00;;;;;;5095790;28;20377;-55
2022/10/14 09:14:37;;;;;;;17.00;7.47;;;17.00;1.00;;;;;;5096794;28;20388;-56
2022/10/14 09:17:09;;;;;;;14.07;6.65;;;17.10;1.00;;;;;;5095424;28;20386;-56
2022/10/14 09:19:55;;;;;;;14.40;6.32;;;17.10;99.90;;;;;;5096918;28;20710;-55
2022/10/14 09:22:22;;;;;;;13.23;7.17;;;17.20;99.90;;;;;;5096192;28;20370;-55
2022/10/14 09:24:48;;;;;;;13.88;6.20;;;17.30;99.90;;;;;;5096317;28;20448;-56
2022/10/14 09:27:21;;;;;;;13.07;6.30;;;17.30;99.90;;;;;;5095534;28;20765;-56
2022/10/14 09:29:55;;;;;;;11.68;5.75;;;17.20;1.00;;;;;;5094957;28;20433;-53
2022/10/14 09:32:31;;;;;;;13.65;6.10;;;17.20;1.00;;;;;;5082626;28;20415;-53
2022/10/14 09:34:58;;;;;;;13.20;6.70;;;17.40;1.00;;;;;;5097263;28;20462;-55
2022/10/14 09:37:36;;;;;;;12.63;5.87;;;17.30;1.00;;;;;;5104315;28;20487;-55
2022/10/14 09:40:08;;;;;;;14.88;6.60;;;17.40;1.00;;;;;;5106273;28;20376;-57
2022/10/14 09:43:03;;;;;;;11.45;6.00;;;17.50;99.90;;;;;;5097256;28;20371;-53
2022/10/14 09:45:45;;;;;;;11.35;5.95;;;17.30;99.90;;;;;;5096613;28;20466;-56
2022/10/14 09:48:17;;;;;;;11.45;6.20;;;17.40;99.90;;;;;;5098911;28;20428;-55
2022/10/14 09:50:50;;;;;;;13.10;6.18;;;17.30;99.90;;;;;;5085584;28;20406;-55
2022/10/14 09:53:29;;;;;;;13.32;5.80;;;17.30;99.90;;;;;;5087687;28;20896;-55
2022/10/14 09:55:58;;;;;;;11.93;5.80;;;17.30;99.90;;;;;;5095538;28;20404;-55
2022/10/14 09:58:46;;;;;;;13.35;5.57;;;17.30;99.90;;;;;;5089431;28;20423;-56
2022/10/14 10:01:40;;;;;;;9.75;4.88;;;17.30;99.90;;;;;;5082869;28;20433;-55
2022/10/14 10:04:34;;;;;;;9.88;4.40;;;17.50;1.00;;;;;;5073510;28;20419;-53
2022/10/14 10:07:04;;;;;;;10.50;4.80;;;17.70;1.00;;;;;;5071573;28;20394;-56
2022/10/14 10:09:30;;;;;;;9.75;3.80;;;19.30;99.90;;;;;;5087261;28;20382;-54
2022/10/14 10:11:56;;;;;;;8.88;4.20;;;18.20;1.00;;;;;;5092857;28;20384;-54
2022/10/14 10:14:25;;;;;;;11.40;4.83;;;18.40;99.90;;;;;;5091232;28;20402;-54
2022/10/14 10:17:06;;;;;;;12.03;4.87;;;18.50;1.00;;;;;;5090040;28;20419;-54
2022/10/14 10:19:34;;;;;;;8.43;3.40;;;18.60;52.00;;;;;;5081880;28;20764;-54
2022/10/14 10:22:30;;;;;;;10.07;4.07;;;18.90;29.20;;;;;;5071829;28;20371;-56
2022/10/14 10:25:02;;;;;;;10.50;3.70;;;18.80;99.90;;;;;;5069616;28;20431;-53
2022/10/14 10:27:36;;;;;;;9.88;3.85;;;18.80;99.90;;;;;;5079499;28;20468;-54
2022/10/14 10:30:13;;;;;;;8.48;3.35;;;18.70;99.00;;;;;;5091994;28;20398;-54
2022/10/14 10:32:46;;;;;;;9.70;3.83;;;18.70;1.00;;;;;;5094218;28;20470;-52
2022/10/14 10:35:18;;;;;;;8.98;3.65;;;18.80;66.20;;;;;;5088885;28;20767;-53
2022/10/14 10:38:04;;;;;;;8.23;3.40;;;19.00;1.00;;;;;;5101220;28;20863;-54
2022/10/14 10:40:32;;;;;;;10.20;3.75;;;18.90;1.00;;;;;;5091724;28;20382;-53
2022/10/14 10:43:19;;;;;;;8.15;3.38;;;18.90;1.00;;;;;;5091533;28;20812;-54
2022/10/14 10:46:00;;;;;;;8.05;3.40;;;19.00;99.90;;;;;;5092637;28;20431;-53
2022/10/14 10:48:46;;;;;;;8.68;4.00;;;19.30;99.90;;;;;;5075312;28;20419;-54
2022/10/14 10:51:25;;;;;;;8.45;3.40;;;19.50;1.00;;;;;;5070701;28;20458;-54
2022/10/14 10:54:01;;;;;;;9.98;3.50;;;19.70;1.00;;;;;;5085023;28;20455;-54
2022/10/14 10:56:42;;;;;;;8.35;3.30;;;19.80;1.00;;;;;;5085860;28;20457;-54
2022/10/14 10:59:59;;;;;;;9.50;3.10;;;19.80;99.90;;;;;;5090400;28;20386;-54
2022/10/14 11:02:46;;;;;;;11.95;3.80;;;19.90;99.90;;;;;;5033308;28;20406;-54
2022/10/14 11:05:12;;;;;;;9.00;3.70;;;19.70;99.90;;;;;;5090282;28;20412;-54
2022/10/14 11:13:48;;;;;;;7.55;3.50;;;18.80;1.00;;;;;;5093150;28;20783;-54
2022/10/14 11:16:28;;;;;;;12.27;3.90;;;18.60;1.00;;;;;;5086794;28;20726;-54
2022/10/14 11:19:12;;;;;;;9.98;3.63;;;18.50;1.00;;;;;;5091231;28;20389;-54
2022/10/14 11:21:43;;;;;;;9.25;3.30;;;18.30;1.00;;;;;;5089164;28;20428;-53
2022/10/14 11:24:40;;;;;;;10.43;3.10;;;18.20;1.00;;;;;;5084494;28;20464;-53
2022/10/14 11:27:22;;;;;;;8.63;3.22;;;18.00;23.30;;;;;;5088079;28;20418;-54
2022/10/14 11:30:12;;;;;;;10.25;3.50;;;17.80;1.00;;;;;;5089514;28;20419;-54
2022/10/14 11:33:05;;;;;;;9.95;3.40;;;18.60;99.90;;;;;;5108424;28;20800;-55
2022/10/14 11:35:42;;;;;;;7.30;2.97;;;17.30;99.90;;;;;;5111089;28;20876;-55
2022/10/14 11:38:23;;;;;;;7.60;2.70;;;16.80;1.00;;;;;;5110815;28;20837;-53
2022/10/14 11:41:19;;;;;;;9.13;3.53;;;16.90;1.00;;;;;;5110620;28;20376;-53
2022/10/14 11:44:01;;;;;;;10.75;3.38;;;17.10;1.00;;;;;;5066243;28;20404;-55
2022/10/14 11:46:31;;;;;;;10.02;3.50;;;17.30;1.00;;;;;;5093614;28;20376;-54
2022/10/14 11:49:12;;;;;;;7.88;3.70;;;17.60;1.00;;;;;;5070446;28;20387;-54
2022/10/14 11:51:58;;;;;;;9.10;3.30;;;17.60;1.00;;;;;;5070659;28;20975;-54
2022/10/14 11:54:33;;;;;;;11.30;4.00;;;17.60;1.00;;;;;;5069992;28;20514;-54
2022/10/14 11:57:10;;;;;;;11.50;3.97;;;17.70;1.00;;;;;;5070240;28;20392;-55
2022/10/14 12:00:13;;;;;;;9.05;3.30;;;17.90;1.00;;;;;;5070191;28;20459;-55
2022/10/14 12:03:20;;;;;;;9.52;3.60;;;18.00;99.90;;;;;;5070283;28;20388;-53
2022/10/14 12:05:58;;;;;;;9.30;3.50;;;18.20;99.90;;;;;;5070058;28;20857;-53
2022/10/14 12:08:39;;;;;;;8.70;3.90;;;18.40;1.00;;;;;;5069556;28;20415;-54
2022/10/14 12:11:23;;;;;;;11.25;3.80;;;18.60;1.00;;;;;;5069600;28;20387;-54
2022/10/14 12:13:54;;;;;;;9.77;3.30;;;18.50;99.90;;;;;;5077531;28;20386;-54
2022/10/14 12:16:22;;;;;;;11.35;3.30;;;18.50;99.90;;;;;;5071640;28;20377;-53
2022/10/14 12:18:54;;;;;;;10.15;3.60;;;18.50;99.90;;;;;;5089852;28;20382;-53
2022/10/14 12:21:26;;;;;;;9.02;3.90;;;18.50;99.90;;;;;;5088470;28;20747;-53
2022/10/14 12:24:20;;;;;;;8.50;3.60;;;18.70;1.00;;;;;;5090035;28;20412;-54
2022/10/14 12:26:57;;;;;;;8.97;3.63;;;18.80;1.00;;;;;;5086633;28;20382;-53
2022/10/14 12:29:59;;;;;;;10.55;3.67;;;18.80;1.00;;;;;;5088911;28;20382;-55
2022/10/14 12:32:25;;;;;;;8.20;3.00;;;19.00;27.50;;;;;;5045498;28;20445;-53
2022/10/14 12:34:55;;;;;;;8.20;3.20;;;19.00;1.00;;;;;;5088729;28;20423;-54
2022/10/14 12:37:26;;;;;;;10.63;3.70;;;19.30;99.90;;;;;;5073861;28;20393;-54
2022/10/14 12:40:13;;;;;;;9.20;3.60;;;19.40;1.00;;;;;;5069515;28;20387;-53
2022/10/14 12:42:57;;;;;;;7.75;3.05;;;19.60;1.00;;;;;;5068968;28;20390;-53
2022/10/14 12:45:25;;;;;;;9.13;2.77;;;19.80;1.00;;;;;;5079329;28;20398;-54
2022/10/14 12:48:23;;;;;;;8.00;3.10;;;19.90;1.00;;;;;;5089362;28;20881;-53
2022/10/14 12:51:12;;;;;;;8.88;3.30;;;19.90;1.00;;;;;;5090029;28;20908;-54
2022/10/14 12:53:46;;;;;;;6.82;3.00;;;19.80;89.40;;;;;;5089507;28;20731;-54
2022/10/14 12:56:29;;;;;;;7.97;3.08;;;19.70;91.50;;;;;;5089093;28;20424;-54
2022/10/14 12:59:04;;;;;;;8.30;3.00;;;19.90;1.00;;;;;;5089816;28;20374;-57
2022/10/14 13:01:30;;;;;;;8.05;2.80;;;19.70;99.90;;;;;;5083655;28;20399;-54
2022/10/14 13:04:16;;;;;;;7.60;2.70;;;19.40;1.00;;;;;;5089193;28;20437;-54
2022/10/14 13:06:42;;;;;;;6.40;2.63;;;19.30;1.00;;;;;;5087070;28;20425;-54
2022/10/14 13:09:11;;;;;;;6.95;2.60;;;19.30;1.00;;;;;;5088389;28;20859;-54
2022/10/14 13:11:38;;;;;;;6.88;2.33;;;19.40;1.00;;;;;;5089092;28;20406;-54